Webcam Meteoipassi more information Webcam Meteoipassi


Pisa torre orologio more information Pisa torre orologio


altri nostri siti meteo:

Pomeziameteo 1Sito sul meteo

Pomeziameteo DashboardSito sul meteo

Caput FrigorisSito sul meteo

BarcellonameteoSito sul meteo

MeteoipassiSito sul meteo

ViterbometeoSito sul meteo

MeteotortoretoSito sul meteo

TortoretometeolidoSito sul meteo

MeteoGonzagaSito sul meteo



Vento Inizio validita dal: 21-10-2018 14:00 Fino: 22-10-2018 22:59 Allerta per: Vento Livello: Giallo info button

Report METAR

   
LIRQ - Firenze
Dati ricevuti: Oct 21 2018 7:20 am
Sereno  
Sereno  
   Vento: Variabile 1.9 km/h
Vento: Variabile 1.9 km/h
Temperatura: 9°C
P.to Rugiada: 8°C
Umidita: 94%
Barometro: 1019 hPa
Visibilita: oltre 10 km
dettagli cloud: Sereno
LIRQ 210520Z VRB01KT CAVOK 09/08 Q1019
LIRP - Lucca
Dati ricevuti: Oct 21 2018 7:15 am
Sereno  
Sereno  
   Vento: S 7.4 km/h
Vento: S 7.4 km/h
Temperatura: 10°C
Temperatura Vento: 9°C
P.to Rugiada: 10°C
Umidita: 100%
Barometro: 1019 hPa
Visibilita: oltre 10 km
dettagli cloud: Sereno
LIRP 210515Z 15004KT CAVOK 10/10 Q1019 NOSIG
LIRP - Livorno
Dati ricevuti: Oct 21 2018 7:15 am
Sereno  
Sereno  
   Vento: S 7.4 km/h
Vento: S 7.4 km/h
Temperatura: 10°C
Temperatura Vento: 9°C
P.to Rugiada: 10°C
Umidita: 100%
Barometro: 1019 hPa
Visibilita: oltre 10 km
dettagli cloud: Sereno
LIRP 210515Z 15004KT CAVOK 10/10 Q1019 NOSIG
LIMP - Parma
Dati ricevuti: Oct 21 2018 7:00 am
Nebbia, Parzialmente nuvoloso  
Nebbia, Parzialmente nuvoloso  
   Vento: SW 5.6 km/h
Vento: SW 5.6 km/h
Temperatura: 10°C
Temperatura Vento: 9°C
P.to Rugiada: 9°C
Umidita: 94%
Barometro: 1020 hPa
Nuvole: Parzialmente nuvoloso
Visibilita: 5 km
dettagli cloud: Parzialmente nuvoloso
LIMP 210500Z 23003KT 5000 BR NSC 10/09 Q1020
LIRF - Roma
Dati ricevuti: Oct 21 2018 7:20 am
Sereno  
Sereno  
   Vento: Oriente 7.4 km/h
Vento: Oriente 7.4 km/h
Temperatura: 13°C
P.to Rugiada: 10°C
Umidita: 82%
Barometro: 1018 hPa
Visibilita: oltre 10 km
dettagli cloud: Sereno
LIRF 210520Z 08004KT CAVOK 13/10 Q1018 NOSIG
 

Script sviluppato da  Saratoga-weather.org Adattato per il modello da  Weerstation Leuven

Potete trovare le nostre info meteo anche a:

European Weather Network

Weather Underground

AWEKAS

HAMweather, WeatherForYou, PWS Weather

Strumentazione usata:

Stazione meteo
Oregon Scientific WMR88

Programma gestore dati meteo
WVIEW

Server per i dati meteo
WDS-5

Provider
Anemos WDS-5

Oregon Scientific WMR88

WVIEW

WDS-5

Anemos WDS-5